createdAt,value
2022-12-31T00:16:41.549Z,1011.6
2022-12-31T01:16:41.544Z,1012.26
2022-12-31T01:46:41.639Z,1012.6
2022-12-31T02:16:41.532Z,1012.61
2022-12-31T02:46:41.568Z,1012.69
2022-12-31T03:16:41.523Z,1012.94
2022-12-31T03:46:41.540Z,1012.95
2022-12-31T04:16:41.574Z,1013.03
2022-12-31T04:46:41.553Z,1013.22
2022-12-31T05:16:41.599Z,1013.28
2022-12-31T05:46:41.568Z,1013.53
2022-12-31T06:16:41.567Z,1013.94
2022-12-31T06:46:41.627Z,1013.81
2022-12-31T07:16:41.577Z,1014.06
2022-12-31T07:46:41.661Z,1014.34
2022-12-31T08:16:41.630Z,1014.72
2022-12-31T08:46:41.583Z,1014.9
2022-12-31T09:16:41.631Z,1015.1
2022-12-31T09:46:41.589Z,1015.36
2022-12-31T10:16:41.667Z,1015.37
2022-12-31T10:46:41.671Z,1015.25
2022-12-31T11:16:41.616Z,1015.1
2022-12-31T11:46:41.650Z,1015.12
2022-12-31T12:16:41.708Z,1015.02
2022-12-31T12:46:47.617Z,1015
2022-12-31T13:16:41.655Z,1014.86
2022-12-31T13:46:41.627Z,1014.66
2022-12-31T14:16:41.672Z,1014.79
2022-12-31T14:46:41.633Z,1015.12
2022-12-31T15:16:41.685Z,1015.31
2022-12-31T15:46:41.636Z,1015.4
2022-12-31T16:16:41.642Z,1015.42
2022-12-31T16:46:41.742Z,1015.52
2022-12-31T17:16:41.639Z,1015.64
2022-12-31T17:46:41.725Z,1015.63
2022-12-31T18:16:41.718Z,1015.76
2022-12-31T18:46:41.686Z,1015.96
2022-12-31T19:16:41.658Z,1016.05
2022-12-31T19:46:41.669Z,1015.99
2022-12-31T20:16:41.708Z,1016.26
2022-12-31T20:46:41.749Z,1016.43
2022-12-31T21:16:41.660Z,1016.36
2022-12-31T21:47:00.856Z,1016.35
2022-12-31T22:16:41.764Z,1016.79
2022-12-31T22:46:41.730Z,1017.03
2022-12-31T23:16:41.680Z,1017.1
2022-12-31T23:46:41.765Z,1017.24
